nws-alerts: Checking more than four warning/county codes can delay the loading of your pages. You should use a cron job to get the data.

Nearby METAR Weather Reports

 

KDMA - Davis/Tucson, Arizona, USA
Distance from station: W 21mi, 34km
Updated: 12/13/2017 10:58am
Clear
Clear
 Wind from ESE
Wind: ESE 12 mph , 19 km/h
Temperature: 68°F , 20°C
Dew Point: 23°F , -5°C
Humidity: 18%
Barometer: 30.06 inHg , 1017.9 hPa
Clouds: Clear
Visibility: 10 miles , 16 km
2017/12/13 17:58 KDMA 131758Z AUTO 12010KT 10SM CLR 20/M05 A3006 RMK AO2 SLP154 T01951055 10195 20104 58004 $
KTUS - Tucson, Arizona, USA
Distance from station: W 26mi, 42km
Updated: 12/13/2017 10:53am
Clear
Clear
 Wind from SSE
Wind: SSE 8 mph , 13 km/h
Temperature: 66°F , 19°C
Dew Point: 23°F , -5°C
Humidity: 19%
Barometer: 30.09 inHg , 1019 hPa
Clouds: Clear
Visibility: 10 miles , 16 km
2017/12/13 17:53 KTUS 131753Z 15007KT 10SM CLR 19/M05 A3009 RMK AO2 SLP161 T01891050 10189 20078 58003
 
KALK - Pioneer Airfield, Arizona, USA
Distance from station: S 37mi, 60km
Updated: 12/13/2017 10:56am
Clear
Clear
 Wind from E
Wind: E 8 mph , 13 km/h
Temperature: 59°F , 15°C
Dew Point: 21°F , -6°C
Humidity: 23%
Barometer: 30.16 inHg , 1021.3 hPa
Clouds: Clear
Visibility: 10 miles , 16 km
2017/12/13 17:56 KALK 131756Z AUTO 09007KT 10SM CLR 15/M06 A3016 RMK AO2 SLP156 T01501061 10150 20044 58003
KRYN - Tucson/Ryan Fld, Arizona, USA
Distance from station: W 39mi, 62km
Updated: 12/13/2017 10:45am
Clear
Clear
 Wind from ESE
Wind: ESE 8 mph , 13 km/h
Temperature: 66°F , 19°C
Dew Point: 23°F , -5°C
Humidity: 19%
Barometer: 30.08 inHg , 1018.6 hPa
Clouds: Clear
Visibility: 10 miles , 16 km
2017/12/13 17:45 KRYN 131745Z 11007KT 10SM CLR 19/M05 A3008
 
KFHU - Fort Huachuca, Arizona, USA
Distance from station: SSE 39mi, 63km
Updated: 12/13/2017 11:28am
Clear
Clear
 Wind from E
Wind: E 6 mph , 9 km/h
Temperature: 61°F , 16°C
Dew Point: 21°F , -6°C
Humidity: 22%
Barometer: 30.14 inHg , 1020.7 hPa
Clouds: Clear
Visibility: 10 miles , 16 km
2017/12/13 18:28 KFHU 131828Z AUTO 10005KT 10SM CLR 16/M06 A3014 RMK AO2 SLP170
KOLS - Nogales, Arizona, USA
Distance from station: SSW 54mi, 86km
Updated: 12/13/2017 10:54am
Clear
Clear
 Wind from calm
Wind: Calm
Temperature: 64°F , 18°C
Dew Point: 25°F , -4°C
Humidity: 22%
Barometer: 30.11 inHg , 1019.6 hPa
Clouds: Clear
Visibility: 10 miles , 16 km
2017/12/13 17:54 KOLS 131754Z AUTO 00000KT 10SM CLR 18/M04 A3011 RMK AO2 SLP157 T01831039 10183 20033 58003
 
KDUG - Douglas Bisbee, Arizona, USA
Distance from station: SE 71mi, 114km
Updated: 12/13/2017 10:56am
Clear
Clear
 Wind from WSW
Wind: WSW 5 mph , 7 km/h
Temperature: 54°F , 12°C
Dew Point: 18°F , -8°C
Humidity: 24%
Barometer: 30.16 inHg , 1021.3 hPa
Clouds: Clear
Visibility: 10 miles , 16 km
2017/12/13 17:56 KDUG 131756Z AUTO 25004KT 10SM CLR 12/M08 A3016 RMK AO2 SLP182 T01221078 10122 21033 58003
KSAD - Safford, Arizona, USA
Distance from station: NE 71mi, 114km
Updated: 12/13/2017 10:51am
Clear
Clear
 Wind from ESE
Wind: ESE 12 mph , 19 km/h
Temperature: 57°F , 14°C
Dew Point: 5°F , -15°C
Humidity: 12%
Barometer: 30.15 inHg , 1021 hPa
Clouds: Clear
Visibility: 10 miles , 16 km
2017/12/13 17:51 KSAD 131751Z AUTO 12010KT 10SM CLR 14/M15 A3015 RMK AO2 SLP192 T01391150 10139 20050 58003
 
KCGZ - Casa Granda, Arizona, USA
Distance from station: NW 93mi, 149km
Updated: 09/16/2017 8:56pm
NOT Current
Clear
Clear
 Wind from W
Wind: W 8 mph , 13 km/h
Temperature: 84°F , 29°C
Dew Point: 46°F , 8°C
Humidity: 27%
Barometer: 29.83 inHg , 1010.2 hPa
Clouds: Clear
Visibility: 10 miles , 16 km
2017/09/17 03:56 KCGZ 170356Z AUTO 27007KT 10SM CLR 29/08 A2983 RMK AO2 SLP086 T02940083 PNO $
KLSB - Lordsburg, New Mexico, USA
Distance from station: E 106mi, 171km
Updated: 08/24/2016 4:15am
NOT Current
Clear
Clear
 Wind from calm
Wind: Calm
Temperature: 61°F , 16°C
Dew Point: 43°F , 6°C
Humidity: 52%
Barometer: 30.15 inHg , 1021 hPa
Clouds: Clear
Visibility: 10 miles , 16 km
2016/08/24 11:15 KLSB 241115Z AUTO 00000KT 10SM CLR 16/06 A3015 RMK AO2
 
KPHX - Phoenix/Sky Hrbr, Arizona, USA
Distance from station: NW 126mi, 202km
Updated: 12/13/2017 10:51am
Few Clouds
Few Clouds
 Wind from E
Wind: E 14 mph , 22 km/h
Temperature: 68°F , 20°C
Dew Point: 7°F , -14°C
Humidity: 9%
Barometer: 30.05 inHg , 1017.6 hPa
Clouds: Few Clouds
Visibility: 10 miles , 16 km
Cloud details: Few Clouds 25000 ft
2017/12/13 17:51 KPHX 131751Z 08012KT 10SM FEW250 20/M14 A3005 RMK AO2 SLP164 T02001139 10200 20078 58002
KGXF - Gila Bend (aaf), Arizona, USA
Distance from station: WNW 139mi, 223km
Updated: 12/13/2017 10:55am
Few Clouds
Few Clouds
 Wind from NE
Wind: NE 9 mph , 15 km/h
Temperature: 68°F , 20°C
Dew Point: 12°F , -11°C
Humidity: 11%
Barometer: 30.03 inHg , 1016.9 hPa
Clouds: Few Clouds
Visibility: 10 miles , 16 km
Cloud details: Few Clouds 20000 ft
2017/12/13 17:55 KGXF 131755Z 05008KT 10SM FEW200 20/M11 A3003 RMK SLPNO 5//// WND DATA ALSTG ESTMD
 
KSVC - Silver City, New Mexico, USA
Distance from station: ENE 142mi, 228km
Updated: 12/13/2017 11:15am
Clear
Clear
 Wind from SE
Wind: SE 3 mph , 6 km/h
Temperature: 55°F , 13°C
Dew Point: 9°F , -13°C
Humidity: 15%
Barometer: 30.17 inHg , 1021.7 hPa
Clouds: Clear
Visibility: 10 miles , 16 km
2017/12/13 18:15 KSVC 131815Z AUTO 13003KT 10SM CLR 13/M13 A3017 RMK AO2 T01301134
KLUF - Luke Afb/Glendal, Arizona, USA
Distance from station: NW 144mi, 232km
Updated: 12/13/2017 10:58am
Clear
Clear
 Wind from calm
Wind: Calm
Temperature: 64°F , 18°C
Dew Point: 12°F , -11°C
Humidity: 13%
Barometer: 30.05 inHg , 1017.6 hPa
Clouds: Clear
Visibility: 10 miles , 16 km
2017/12/13 17:58 KLUF 131758Z 00000KT 10SM CLR 18/M11 A3005 RMK AO2A SLP173 T01801109 10180 20046 58001 $